createdAt,value
2023-03-12T00:02:28.381Z,5.70
2023-03-12T00:07:37.070Z,7.90
2023-03-12T00:12:44.482Z,5.80
2023-03-12T00:17:52.409Z,4.50
2023-03-12T00:23:00.261Z,6.10
2023-03-12T00:28:09.008Z,6.20
2023-03-12T00:33:17.976Z,5.90
2023-03-12T00:38:26.493Z,5.50
2023-03-12T00:43:34.863Z,4.70
2023-03-12T00:48:43.565Z,5.40
2023-03-12T00:53:52.657Z,6.60
2023-03-12T00:59:01.231Z,4.90
2023-03-12T01:04:09.947Z,5.40
2023-03-12T01:09:17.547Z,6.00
2023-03-12T01:14:25.111Z,5.00
2023-03-12T01:19:33.812Z,5.30
2023-03-12T01:24:42.077Z,4.30
2023-03-12T01:29:50.711Z,6.50
2023-03-12T01:35:02.068Z,6.90
2023-03-12T01:40:16.719Z,6.80
2023-03-12T01:45:59.594Z,7.50
2023-03-12T01:51:11.007Z,7.70
2023-03-12T01:56:22.420Z,6.30
2023-03-12T02:01:32.261Z,8.20
2023-03-12T02:06:45.838Z,7.00
2023-03-12T02:11:54.975Z,7.30
2023-03-12T02:17:03.511Z,12.10
2023-03-12T02:22:12.692Z,8.90
2023-03-12T02:27:23.316Z,9.00
2023-03-12T02:32:36.635Z,7.40
2023-03-12T02:37:54.297Z,8.00
2023-03-12T02:43:02.785Z,7.90
2023-03-12T02:48:12.291Z,11.90
2023-03-12T02:53:20.887Z,10.70
2023-03-12T02:58:30.256Z,9.00
2023-03-12T03:03:39.403Z,8.30
2023-03-12T03:08:47.664Z,8.80
2023-03-12T03:13:56.526Z,7.70
2023-03-12T03:19:05.466Z,7.30
2023-03-12T03:24:14.235Z,9.10
2023-03-12T03:29:23.129Z,7.20
2023-03-12T03:34:32.073Z,8.70
2023-03-12T03:39:40.814Z,6.40
2023-03-12T03:44:49.452Z,7.90
2023-03-12T03:49:57.740Z,8.80
2023-03-12T03:55:06.644Z,7.30
2023-03-12T04:00:18.389Z,7.30
2023-03-12T04:05:27.333Z,8.50
2023-03-12T04:10:35.087Z,7.30
2023-03-12T04:15:51.191Z,7.60
2023-03-12T04:21:00.122Z,8.30
2023-03-12T04:26:09.357Z,9.10
2023-03-12T04:31:18.147Z,7.70
2023-03-12T04:36:31.714Z,8.80
2023-03-12T04:41:40.699Z,5.60
2023-03-12T04:46:52.077Z,5.70
2023-03-12T04:52:02.625Z,3.60
2023-03-12T04:57:10.329Z,4.70
2023-03-12T05:02:18.922Z,3.30
2023-03-12T05:07:28.042Z,3.70
2023-03-12T05:12:36.468Z,3.70
2023-03-12T05:17:45.044Z,7.40
2023-03-12T05:22:53.426Z,3.30
2023-03-12T05:28:01.733Z,3.00
2023-03-12T05:33:10.571Z,4.80
2023-03-12T05:38:18.074Z,4.40
2023-03-12T05:43:27.071Z,2.80
2023-03-12T05:48:34.799Z,4.70
2023-03-12T05:53:48.933Z,2.30
2023-03-12T05:58:57.891Z,2.80
2023-03-12T06:04:06.165Z,2.10
2023-03-12T06:09:13.931Z,3.70
2023-03-12T06:14:22.319Z,3.90
2023-03-12T06:19:30.708Z,1.00
2023-03-12T06:24:38.601Z,1.30
2023-03-12T06:29:48.387Z,1.30
2023-03-12T06:34:56.954Z,2.20
2023-03-12T06:40:10.350Z,1.70
2023-03-12T06:45:18.709Z,3.30
2023-03-12T06:50:27.701Z,3.80
2023-03-12T06:55:35.994Z,3.00
2023-03-12T07:00:44.910Z,2.90
2023-03-12T07:05:53.908Z,2.20
2023-03-12T07:11:03.806Z,3.90
2023-03-12T07:16:12.983Z,4.30
2023-03-12T07:21:24.259Z,2.30
2023-03-12T07:26:33.319Z,3.30
2023-03-12T07:31:41.700Z,2.20
2023-03-12T07:36:50.200Z,4.60
2023-03-12T07:41:58.645Z,3.00
2023-03-12T07:47:22.368Z,1.90
2023-03-12T07:52:32.812Z,0.50
2023-03-12T07:57:41.105Z,3.40
2023-03-12T08:02:50.269Z,3.00
2023-03-12T08:07:59.200Z,2.50
2023-03-12T08:13:07.515Z,3.20
2023-03-12T08:18:15.326Z,1.80
2023-03-12T08:23:24.745Z,4.80
2023-03-12T08:28:33.999Z,1.90
2023-03-12T08:33:44.110Z,3.30
2023-03-12T08:38:52.983Z,2.50
2023-03-12T08:44:02.267Z,6.00
2023-03-12T08:49:10.627Z,1.60
2023-03-12T08:54:19.386Z,3.40
2023-03-12T08:59:27.405Z,6.20
2023-03-12T09:04:36.374Z,5.30
2023-03-12T09:09:45.070Z,4.30
2023-03-12T09:15:08.731Z,2.00
2023-03-12T09:20:18.900Z,2.00
2023-03-12T09:25:28.471Z,1.70
2023-03-12T09:30:37.975Z,2.90
2023-03-12T09:35:46.315Z,4.10
2023-03-12T09:40:55.456Z,2.80
2023-03-12T09:46:05.103Z,4.50
2023-03-12T09:51:25.173Z,2.70
2023-03-12T09:56:34.915Z,4.10
2023-03-12T10:01:49.209Z,4.10
2023-03-12T10:07:03.566Z,4.10
2023-03-12T10:12:26.675Z,3.10
2023-03-12T10:17:52.499Z,4.40
2023-03-12T10:23:09.652Z,0.90
2023-03-12T10:28:24.191Z,2.50
2023-03-12T10:33:42.193Z,1.90
2023-03-12T10:38:50.497Z,2.60
2023-03-12T10:44:03.358Z,3.50
2023-03-12T10:49:42.849Z,2.40
2023-03-12T10:54:54.587Z,2.60
2023-03-12T11:00:13.937Z,3.50
2023-03-12T11:05:28.004Z,3.60
2023-03-12T11:10:47.760Z,7.30
2023-03-12T11:15:58.168Z,3.20
2023-03-12T11:21:22.348Z,10.30
2023-03-12T11:26:36.866Z,2.30
2023-03-12T11:31:52.327Z,4.30
2023-03-12T11:37:09.553Z,6.40
2023-03-12T11:42:27.458Z,2.70
2023-03-12T11:47:50.202Z,2.30
2023-03-12T11:53:20.613Z,3.00
2023-03-12T11:58:54.025Z,1.60
2023-03-12T12:04:43.063Z,2.70
2023-03-12T12:09:58.995Z,4.70
2023-03-12T12:15:23.873Z,1.10
2023-03-12T12:20:45.894Z,4.20
2023-03-12T12:26:11.603Z,3.40
2023-03-12T12:31:30.712Z,1.10
2023-03-12T12:36:41.147Z,2.70
2023-03-12T12:41:53.528Z,4.20
2023-03-12T12:52:13.487Z,2.50
2023-03-12T12:57:28.801Z,1.00
2023-03-12T13:02:42.663Z,2.10
2023-03-12T13:07:51.001Z,2.30
2023-03-12T13:13:01.043Z,4.00
2023-03-12T13:18:20.778Z,2.70
2023-03-12T13:23:40.158Z,2.40
2023-03-12T13:29:15.765Z,2.30
2023-03-12T13:34:48.577Z,1.90
2023-03-12T13:39:57.068Z,0.40
2023-03-12T13:45:29.458Z,1.20
2023-03-12T13:55:51.941Z,1.70
2023-03-12T14:01:03.457Z,0.90
2023-03-12T14:06:15.752Z,3.30
2023-03-12T14:16:49.906Z,1.30
2023-03-12T14:22:02.574Z,1.00
2023-03-12T14:27:19.972Z,1.10
2023-03-12T14:32:32.482Z,1.70
2023-03-12T14:37:46.559Z,1.10
2023-03-12T14:42:56.282Z,1.70
2023-03-12T14:48:06.190Z,1.90
2023-03-12T14:53:25.258Z,1.40
2023-03-12T14:58:34.124Z,3.50
2023-03-12T15:03:48.099Z,2.90
2023-03-12T15:08:57.424Z,0.80
2023-03-12T15:14:10.135Z,1.10
2023-03-12T15:19:22.498Z,0.50
2023-03-12T15:29:44.911Z,2.80
2023-03-12T15:34:54.378Z,2.90
2023-03-12T15:40:07.411Z,1.80
2023-03-12T15:45:23.687Z,5.20
2023-03-12T15:50:39.424Z,2.10
2023-03-12T15:56:03.508Z,1.50
2023-03-12T16:01:17.121Z,2.60
2023-03-12T16:06:30.350Z,2.20
2023-03-12T16:11:40.824Z,1.90
2023-03-12T16:16:48.813Z,1.80
2023-03-12T16:21:56.306Z,2.70
2023-03-12T16:27:07.738Z,4.00
2023-03-12T16:32:19.085Z,1.40
2023-03-12T16:37:27.612Z,2.40
2023-03-12T16:42:36.013Z,1.10
2023-03-12T16:47:44.425Z,2.70
2023-03-12T16:52:53.896Z,2.10
2023-03-12T16:58:05.764Z,2.60
2023-03-12T17:03:23.924Z,2.30
2023-03-12T17:08:31.327Z,1.10
2023-03-12T17:13:40.613Z,3.50
2023-03-12T17:18:48.218Z,2.20
2023-03-12T17:23:56.688Z,4.40
2023-03-12T17:29:05.146Z,4.60
2023-03-12T17:34:13.584Z,3.70
2023-03-12T17:39:21.596Z,5.50
2023-03-12T17:44:34.961Z,4.10
2023-03-12T17:49:45.741Z,2.80
2023-03-12T17:54:54.149Z,3.20
2023-03-12T18:00:02.566Z,3.30
2023-03-12T18:05:19.916Z,4.60
2023-03-12T18:10:27.343Z,3.40
2023-03-12T18:15:35.584Z,2.50
2023-03-12T18:20:45.429Z,7.60
2023-03-12T18:25:53.906Z,7.60
2023-03-12T18:31:02.263Z,8.30
2023-03-12T18:36:11.658Z,6.60
2023-03-12T18:41:20.111Z,6.10
2023-03-12T18:46:29.568Z,4.70
2023-03-12T18:51:38.140Z,5.20
2023-03-12T18:56:46.725Z,5.50
2023-03-12T19:01:55.262Z,5.40
2023-03-12T19:07:03.708Z,10.80
2023-03-12T19:12:12.160Z,17.10
2023-03-12T19:17:20.290Z,18.20
2023-03-12T19:22:28.706Z,13.70
2023-03-12T19:27:37.535Z,15.70
2023-03-12T19:32:46.099Z,10.20
2023-03-12T19:37:53.999Z,8.40
2023-03-12T19:43:02.646Z,9.20
2023-03-12T19:48:10.744Z,12.20
2023-03-12T19:53:20.383Z,12.30
2023-03-12T19:58:28.863Z,15.70
2023-03-12T20:03:43.618Z,17.20
2023-03-12T20:08:51.379Z,12.80
2023-03-12T20:13:58.883Z,14.10
2023-03-12T20:19:06.125Z,21.40
2023-03-12T20:24:15.101Z,24.40
2023-03-12T20:29:23.564Z,23.20
2023-03-12T20:34:32.154Z,29.10
2023-03-12T20:39:40.838Z,34.00
2023-03-12T20:44:49.464Z,35.50
2023-03-12T20:49:58.039Z,30.30
2023-03-12T20:55:06.991Z,19.20
2023-03-12T21:00:16.692Z,18.80
2023-03-12T21:05:25.198Z,14.20
2023-03-12T21:10:33.866Z,24.10
2023-03-12T21:15:43.031Z,15.40
2023-03-12T21:20:51.404Z,10.60
2023-03-12T21:26:07.802Z,21.20
2023-03-12T21:31:19.319Z,22.60
2023-03-12T21:36:27.958Z,22.20
2023-03-12T21:41:36.673Z,13.60
2023-03-12T21:46:45.105Z,15.10
2023-03-12T21:51:53.317Z,18.30
2023-03-12T21:57:02.797Z,16.90
2023-03-12T22:02:14.065Z,73.20
2023-03-12T22:07:22.440Z,87.90
2023-03-12T22:12:31.183Z,51.80
2023-03-12T22:17:40.146Z,39.70
2023-03-12T22:22:48.514Z,39.50
2023-03-12T22:27:56.809Z,35.80
2023-03-12T22:33:05.548Z,29.60
2023-03-12T22:38:13.861Z,22.60
2023-03-12T22:43:21.756Z,20.70
2023-03-12T22:48:29.230Z,17.00
2023-03-12T22:53:36.973Z,11.70
2023-03-12T22:58:44.508Z,11.80
2023-03-12T23:03:53.060Z,18.80
2023-03-12T23:09:01.518Z,25.80
2023-03-12T23:14:10.020Z,23.60
2023-03-12T23:19:18.090Z,27.60
2023-03-12T23:24:27.272Z,39.00
2023-03-12T23:29:36.640Z,27.10
2023-03-12T23:34:44.942Z,16.90
2023-03-12T23:39:55.017Z,13.30
2023-03-12T23:45:04.388Z,20.60
2023-03-12T23:50:14.711Z,18.60
2023-03-12T23:55:23.220Z,31.20
